createdAt,value
2019-02-10T00:01:46.856Z,93.60
2019-02-10T00:04:15.620Z,93.70
2019-02-10T00:06:44.696Z,93.40
2019-02-10T00:09:13.544Z,93.50
2019-02-10T00:11:42.232Z,93.40
2019-02-10T00:14:11.865Z,93.40
2019-02-10T00:16:40.694Z,93.40
2019-02-10T00:19:49.592Z,93.40
2019-02-10T00:22:18.475Z,93.80
2019-02-10T00:24:47.389Z,93.50
2019-02-10T00:27:16.232Z,93.40
2019-02-10T00:29:45.188Z,93.40
2019-02-10T00:32:14.023Z,93.40
2019-02-10T00:34:48.602Z,93.40
2019-02-10T00:37:18.918Z,93.30
2019-02-10T00:39:47.588Z,93.30
2019-02-10T00:42:16.607Z,93.20
2019-02-10T00:44:45.311Z,93.20
2019-02-10T00:47:14.124Z,93.20
2019-02-10T00:49:42.928Z,93.00
2019-02-10T00:52:11.867Z,93.00
2019-02-10T00:54:40.897Z,92.90
2019-02-10T00:57:11.622Z,93.00
2019-02-10T00:59:40.293Z,93.00
2019-02-10T01:02:09.241Z,92.90
2019-02-10T01:04:38.109Z,92.70
2019-02-10T01:07:07.003Z,92.60
2019-02-10T01:09:35.790Z,92.50
2019-02-10T01:12:05.528Z,92.70
2019-02-10T01:14:34.396Z,92.70
2019-02-10T01:17:03.292Z,92.70
2019-02-10T01:19:32.022Z,92.90
2019-02-10T01:22:02.453Z,92.80
2019-02-10T01:24:31.145Z,92.90
2019-02-10T01:27:01.672Z,92.90
2019-02-10T01:29:30.628Z,93.20
2019-02-10T01:31:59.547Z,92.70
2019-02-10T01:34:28.301Z,92.90
2019-02-10T01:36:57.319Z,93.40
2019-02-10T01:39:26.844Z,93.20
2019-02-10T01:41:58.639Z,93.20
2019-02-10T01:44:27.700Z,93.20
2019-02-10T01:46:56.560Z,93.20
2019-02-10T01:49:25.369Z,93.20
2019-02-10T01:51:54.020Z,93.20
2019-02-10T01:54:23.099Z,93.10
2019-02-10T01:56:51.994Z,93.20
2019-02-10T01:59:21.660Z,93.10
2019-02-10T02:01:50.462Z,93.20
2019-02-10T02:04:19.179Z,93.30
2019-02-10T02:06:47.892Z,93.40
2019-02-10T02:09:16.665Z,93.30
2019-02-10T02:11:45.720Z,93.30
2019-02-10T02:14:14.543Z,93.30
2019-02-10T02:16:43.303Z,93.30
2019-02-10T02:19:12.177Z,93.40
2019-02-10T02:21:41.072Z,93.40
2019-02-10T02:24:09.800Z,93.50
2019-02-10T02:26:38.784Z,93.60
2019-02-10T02:29:07.540Z,93.60
2019-02-10T02:31:36.635Z,93.60
2019-02-10T02:34:05.231Z,93.70
2019-02-10T02:36:35.606Z,93.70
2019-02-10T02:39:04.908Z,93.70
2019-02-10T02:41:33.582Z,93.70
2019-02-10T02:44:02.288Z,93.70
2019-02-10T02:46:31.013Z,93.80
2019-02-10T02:48:59.766Z,93.90
2019-02-10T02:51:28.439Z,94.00
2019-02-10T02:53:57.238Z,94.00
2019-02-10T02:56:25.888Z,94.10
2019-02-10T02:58:54.649Z,94.00
2019-02-10T03:01:23.331Z,94.10
2019-02-10T03:03:52.220Z,94.00
2019-02-10T03:06:20.902Z,94.10
2019-02-10T03:08:49.771Z,94.50
2019-02-10T03:11:18.422Z,94.20
2019-02-10T03:13:47.074Z,94.20
2019-02-10T03:16:15.804Z,94.20
2019-02-10T03:18:51.932Z,94.10
2019-02-10T03:21:14.960Z,94.10
2019-02-10T03:23:43.831Z,94.10
2019-02-10T03:26:12.664Z,94.10
2019-02-10T03:28:41.566Z,94.20
2019-02-10T03:31:10.555Z,94.10
2019-02-10T03:33:39.349Z,94.10
2019-02-10T03:36:08.278Z,94.20
2019-02-10T03:38:37.072Z,94.20
2019-02-10T03:41:06.272Z,94.40
2019-02-10T03:43:35.043Z,94.30
2019-02-10T03:46:03.993Z,94.30
2019-02-10T03:48:32.669Z,94.30
2019-02-10T03:51:01.414Z,94.40
2019-02-10T03:53:30.269Z,94.40
2019-02-10T03:55:59.273Z,94.50
2019-02-10T03:58:28.253Z,94.40
2019-02-10T04:00:57.102Z,94.50
2019-02-10T04:03:27.065Z,94.60
2019-02-10T04:05:56.086Z,94.70
2019-02-10T04:08:25.074Z,94.60
2019-02-10T04:10:53.858Z,94.60
2019-02-10T04:13:22.562Z,94.50
2019-02-10T04:15:51.312Z,94.50
2019-02-10T04:18:19.978Z,94.50
2019-02-10T04:20:48.830Z,94.40
2019-02-10T04:23:19.783Z,94.40
2019-02-10T04:25:48.501Z,94.40
2019-02-10T04:28:17.306Z,94.40
2019-02-10T04:30:46.137Z,94.30
2019-02-10T04:33:14.982Z,94.40
2019-02-10T04:35:43.880Z,94.40
2019-02-10T04:38:12.830Z,94.40
2019-02-10T04:40:41.659Z,94.40
2019-02-10T04:43:10.589Z,94.60
2019-02-10T04:45:39.641Z,94.60
2019-02-10T04:48:08.549Z,94.60
2019-02-10T04:50:37.436Z,94.60
2019-02-10T04:53:06.362Z,94.50
2019-02-10T04:55:35.340Z,94.60
2019-02-10T04:58:06.259Z,94.50
2019-02-10T05:00:35.349Z,94.60
2019-02-10T05:03:04.348Z,94.70
2019-02-10T05:05:33.324Z,94.80
2019-02-10T05:08:02.091Z,94.80
2019-02-10T05:10:31.204Z,94.90
2019-02-10T05:13:00.120Z,94.80
2019-02-10T05:15:28.934Z,95.00
2019-02-10T05:17:57.911Z,95.00
2019-02-10T05:20:26.565Z,95.10
2019-02-10T05:22:55.393Z,95.00
2019-02-10T05:25:24.141Z,95.00
2019-02-10T05:27:52.831Z,95.10
2019-02-10T05:30:21.698Z,95.10
2019-02-10T05:32:52.246Z,95.10
2019-02-10T05:35:21.004Z,95.10
2019-02-10T05:37:49.822Z,95.20
2019-02-10T05:40:18.588Z,95.20
2019-02-10T05:42:47.361Z,95.30
2019-02-10T05:45:16.126Z,95.50
2019-02-10T05:47:45.113Z,95.30
2019-02-10T05:50:13.864Z,95.40
2019-02-10T05:52:42.546Z,95.30
2019-02-10T05:55:11.342Z,95.10
2019-02-10T05:57:40.623Z,95.00
2019-02-10T06:00:11.261Z,95.00
2019-02-10T06:02:39.999Z,95.00
2019-02-10T06:05:12.511Z,95.00
2019-02-10T06:07:41.402Z,95.00
2019-02-10T06:10:11.703Z,95.00
2019-02-10T06:12:40.678Z,95.00
2019-02-10T06:15:11.511Z,94.90
2019-02-10T06:17:40.325Z,95.00
2019-02-10T06:20:10.984Z,94.80
2019-02-10T06:22:39.843Z,95.00
2019-02-10T06:25:09.345Z,94.90
2019-02-10T06:27:38.124Z,94.80
2019-02-10T06:30:09.905Z,94.70
2019-02-10T06:32:38.676Z,94.50
2019-02-10T06:35:09.274Z,94.40
2019-02-10T06:37:37.994Z,94.30
2019-02-10T06:40:08.630Z,94.30
2019-02-10T06:42:37.434Z,94.30
2019-02-10T06:45:09.116Z,94.10
2019-02-10T06:47:38.179Z,94.10
2019-02-10T06:50:07.995Z,94.00
2019-02-10T06:52:36.903Z,93.90
2019-02-10T06:55:08.272Z,93.70
2019-02-10T06:57:37.314Z,93.70
2019-02-10T07:00:11.591Z,93.60
2019-02-10T07:03:17.559Z,93.30
2019-02-10T07:05:46.683Z,93.30
2019-02-10T07:08:18.304Z,93.30
2019-02-10T07:10:47.248Z,93.10
2019-02-10T07:13:19.232Z,93.00
2019-02-10T07:16:24.516Z,93.00
2019-02-10T07:19:29.732Z,92.90
2019-02-10T07:21:58.586Z,93.00
2019-02-10T07:24:33.040Z,92.90
2019-02-10T07:27:17.119Z,92.90
2019-02-10T07:29:57.828Z,92.80
2019-02-10T07:32:29.704Z,92.60
2019-02-10T07:35:20.508Z,92.60
2019-02-10T07:38:06.912Z,92.70
2019-02-10T07:40:44.504Z,92.50
2019-02-10T07:43:34.316Z,92.50
2019-02-10T07:46:09.202Z,92.40
2019-02-10T07:49:02.185Z,92.40
2019-02-10T07:51:36.606Z,92.40
2019-02-10T07:54:29.574Z,92.00
2019-02-10T07:57:07.235Z,92.00
2019-02-10T07:59:41.738Z,92.00
2019-02-10T08:02:34.516Z,92.00
2019-02-10T08:05:26.415Z,91.80
2019-02-10T08:08:17.629Z,91.50
2019-02-10T08:11:04.586Z,91.40
2019-02-10T08:14:00.507Z,91.20
2019-02-10T08:16:32.246Z,91.20
2019-02-10T08:19:22.415Z,91.00
2019-02-10T08:21:56.961Z,90.80
2019-02-10T08:24:40.573Z,90.50
2019-02-10T08:27:24.155Z,90.10
2019-02-10T08:29:59.020Z,85.30
2019-02-10T08:32:42.674Z,76.00
2019-02-10T08:35:30.800Z,71.70
2019-02-10T08:38:26.900Z,69.90
2019-02-10T08:41:18.617Z,69.30
2019-02-10T08:44:24.002Z,66.90
2019-02-10T08:47:33.584Z,68.20
2019-02-10T08:50:33.204Z,67.90
2019-02-10T08:53:26.904Z,64.80
2019-02-10T08:55:55.564Z,63.20
2019-02-10T09:01:30.406Z,61.80
2019-02-10T09:04:23.786Z,60.40
2019-02-10T09:07:06.007Z,58.90
2019-02-10T09:09:41.134Z,57.40
2019-02-10T09:12:05.626Z,55.50
2019-02-10T09:14:34.413Z,54.80
2019-02-10T09:17:04.857Z,53.60
2019-02-10T09:19:36.590Z,53.30
2019-02-10T09:22:05.390Z,54.40
2019-02-10T09:24:34.174Z,53.70
2019-02-10T09:27:02.989Z,50.20
2019-02-10T09:29:32.988Z,45.80
2019-02-10T09:32:04.520Z,46.80
2019-02-10T09:34:33.602Z,48.40
2019-02-10T09:37:03.241Z,50.30
2019-02-10T09:39:32.092Z,49.80
2019-02-10T09:42:01.060Z,50.00
2019-02-10T09:44:30.007Z,50.30
2019-02-10T09:46:58.835Z,50.30
2019-02-10T09:49:27.905Z,51.20
2019-02-10T09:51:56.693Z,51.20
2019-02-10T09:54:25.579Z,50.10
2019-02-10T09:56:56.892Z,49.60
2019-02-10T09:59:25.694Z,48.90
2019-02-10T10:01:54.519Z,48.50
2019-02-10T10:04:23.707Z,49.00
2019-02-10T10:06:52.430Z,52.20
2019-02-10T10:09:24.156Z,56.90
2019-02-10T10:11:52.987Z,59.20
2019-02-10T10:14:21.827Z,61.10
2019-02-10T10:16:50.714Z,65.20
2019-02-10T10:19:19.599Z,67.20
2019-02-10T10:21:48.393Z,68.60
2019-02-10T10:24:17.092Z,70.70
2019-02-10T10:26:45.877Z,72.40
2019-02-10T10:29:14.791Z,75.00
2019-02-10T10:31:43.595Z,75.10
2019-02-10T10:34:12.478Z,75.00
2019-02-10T10:36:44.362Z,74.10
2019-02-10T10:39:13.403Z,74.10
2019-02-10T10:41:45.065Z,74.20
2019-02-10T10:44:13.826Z,74.30
2019-02-10T10:46:43.306Z,73.60
2019-02-10T10:49:18.565Z,73.00
2019-02-10T10:51:47.459Z,72.90
2019-02-10T10:54:17.675Z,73.20
2019-02-10T10:56:46.478Z,73.10
2019-02-10T10:59:15.536Z,72.90
2019-02-10T11:01:49.705Z,72.50
2019-02-10T11:04:18.848Z,72.90
2019-02-10T11:06:53.321Z,72.70
2019-02-10T11:09:22.132Z,72.70
2019-02-10T11:11:52.032Z,72.70
2019-02-10T11:14:21.044Z,72.20
2019-02-10T11:16:55.958Z,72.00
2019-02-10T11:19:29.969Z,72.10
2019-02-10T11:21:58.977Z,72.00
2019-02-10T11:24:28.931Z,71.40
2019-02-10T11:27:04.526Z,71.50
2019-02-10T11:29:33.417Z,71.30
2019-02-10T11:32:03.328Z,71.50
2019-02-10T11:34:32.079Z,70.60
2019-02-10T11:37:01.116Z,70.30
2019-02-10T11:39:34.264Z,70.00
2019-02-10T11:42:03.224Z,70.00
2019-02-10T11:44:38.990Z,70.10
2019-02-10T11:47:08.138Z,70.00
2019-02-10T11:49:36.959Z,69.70
2019-02-10T11:52:05.829Z,69.90
2019-02-10T11:54:34.677Z,70.40
2019-02-10T11:57:03.668Z,70.60
2019-02-10T11:59:32.271Z,70.40
2019-02-10T12:02:01.125Z,70.00
2019-02-10T12:04:30.017Z,70.30
2019-02-10T12:06:58.848Z,70.80
2019-02-10T12:09:27.660Z,71.10
2019-02-10T12:11:56.498Z,71.30
2019-02-10T12:14:25.306Z,70.70
2019-02-10T12:16:54.521Z,70.50
2019-02-10T12:19:25.490Z,70.00
2019-02-10T12:21:54.596Z,69.70
2019-02-10T12:24:23.553Z,69.90
2019-02-10T12:26:52.349Z,70.10
2019-02-10T12:29:21.273Z,70.50
2019-02-10T12:31:57.618Z,70.00
2019-02-10T12:34:26.421Z,69.00
2019-02-10T12:36:55.170Z,68.10
2019-02-10T12:39:23.988Z,66.70
2019-02-10T12:41:52.944Z,67.10
2019-02-10T12:44:21.863Z,67.50
2019-02-10T12:46:50.686Z,66.90
2019-02-10T12:49:19.909Z,66.80
2019-02-10T12:51:48.606Z,66.90
2019-02-10T12:54:17.493Z,66.80
2019-02-10T12:56:46.478Z,66.50
2019-02-10T12:59:15.375Z,64.80
2019-02-10T13:01:46.789Z,62.00
2019-02-10T13:04:15.492Z,61.10
2019-02-10T13:06:44.176Z,61.50
2019-02-10T13:09:13.653Z,62.50
2019-02-10T13:11:43.587Z,63.80
2019-02-10T13:14:12.373Z,64.30
2019-02-10T13:16:52.168Z,62.60
2019-02-10T13:19:18.747Z,62.20
2019-02-10T13:21:47.823Z,60.00
2019-02-10T13:24:18.347Z,59.00
2019-02-10T13:26:47.240Z,57.50
2019-02-10T13:29:16.186Z,56.50
2019-02-10T13:31:45.059Z,56.20
2019-02-10T13:34:13.847Z,56.00
2019-02-10T13:36:43.323Z,56.20
2019-02-10T13:39:13.755Z,57.10
2019-02-10T13:41:44.523Z,57.70
2019-02-10T13:44:17.555Z,58.20
2019-02-10T13:46:48.097Z,58.80
2019-02-10T13:49:16.929Z,58.90
2019-02-10T13:51:45.757Z,58.30
2019-02-10T13:54:14.555Z,58.80
2019-02-10T13:56:43.626Z,58.80
2019-02-10T13:59:26.026Z,57.90
2019-02-10T14:02:25.851Z,58.80
2019-02-10T14:04:44.913Z,58.50
2019-02-10T14:07:15.878Z,58.00
2019-02-10T14:13:31.689Z,57.10
2019-02-10T14:28:26.694Z,62.30
2019-02-10T14:28:59.358Z,60.20
2019-02-10T14:31:03.775Z,64.70
2019-02-10T14:33:45.118Z,67.00
2019-02-10T14:38:00.398Z,68.70
2019-02-10T14:39:10.782Z,69.70
2019-02-10T14:41:41.900Z,71.10
2019-02-10T14:44:12.264Z,71.90
2019-02-10T14:46:54.166Z,72.70
2019-02-10T14:49:26.975Z,73.40
2019-02-10T14:51:59.409Z,73.90
2019-02-10T14:54:30.140Z,74.00
2019-02-10T14:57:01.100Z,74.40
2019-02-10T14:59:29.733Z,74.80
2019-02-10T15:01:58.756Z,75.00
2019-02-10T15:04:35.504Z,75.20
2019-02-10T15:07:09.821Z,75.40
2019-02-10T15:09:42.986Z,75.40
2019-02-10T15:12:12.403Z,75.40
2019-02-10T15:17:44.659Z,75.80
2019-02-10T15:20:09.722Z,76.00
2019-02-10T15:22:43.091Z,76.10
2019-02-10T15:25:14.479Z,76.30
2019-02-10T15:27:43.380Z,76.70
2019-02-10T15:30:15.934Z,77.20
2019-02-10T15:32:44.538Z,77.40
2019-02-10T15:35:13.772Z,77.60
2019-02-10T15:37:42.787Z,78.00
2019-02-10T15:40:18.598Z,78.60
2019-02-10T15:42:57.796Z,78.60
2019-02-10T15:45:24.546Z,79.00
2019-02-10T15:47:53.451Z,79.00
2019-02-10T15:50:23.953Z,79.30
2019-02-10T15:52:53.152Z,79.60
2019-02-10T15:55:25.112Z,79.90
2019-02-10T15:57:52.966Z,80.00
2019-02-10T16:00:29.270Z,80.40
2019-02-10T16:03:00.314Z,80.60
2019-02-10T16:05:28.860Z,80.50
2019-02-10T16:08:00.452Z,80.60
2019-02-10T16:10:29.309Z,80.40
2019-02-10T16:13:00.756Z,80.50
2019-02-10T16:15:33.063Z,80.60
2019-02-10T16:18:02.014Z,80.60
2019-02-10T16:20:31.010Z,80.40
2019-02-10T16:23:03.088Z,80.30
2019-02-10T16:28:24.517Z,80.70
2019-02-10T16:31:02.144Z,80.00
2019-02-10T16:37:05.455Z,80.20
2019-02-10T16:42:49.072Z,80.40
2019-02-10T16:55:08.716Z,80.70
2019-02-10T16:56:33.852Z,80.90
2019-02-10T16:59:05.661Z,80.90
2019-02-10T17:04:56.622Z,81.10
2019-02-10T17:07:48.180Z,81.30
2019-02-10T17:13:19.831Z,81.30
2019-02-10T17:16:22.238Z,81.50
2019-02-10T17:18:42.033Z,81.50
2019-02-10T17:21:19.692Z,81.60
2019-02-10T17:23:35.243Z,81.60
2019-02-10T17:26:28.603Z,81.70
2019-02-10T17:28:41.226Z,82.00
2019-02-10T17:31:28.632Z,82.00
2019-02-10T17:34:06.724Z,81.90
2019-02-10T17:36:36.174Z,81.60
2019-02-10T17:39:36.795Z,81.50
2019-02-10T17:42:06.233Z,81.40
2019-02-10T17:44:43.728Z,81.20
2019-02-10T17:50:10.691Z,81.30
2019-02-10T17:52:41.455Z,81.30
2019-02-10T17:55:12.152Z,81.20
2019-02-10T17:57:47.823Z,81.40
2019-02-10T18:00:20.941Z,81.50
2019-02-10T18:02:49.964Z,81.60
2019-02-10T18:05:37.240Z,81.50
2019-02-10T18:08:01.858Z,81.60
2019-02-10T18:10:32.985Z,82.10
2019-02-10T18:13:02.060Z,82.40
2019-02-10T18:15:56.746Z,82.50
2019-02-10T18:18:45.812Z,82.60
2019-02-10T18:21:35.902Z,83.00
2019-02-10T18:24:13.793Z,83.00
2019-02-10T18:26:49.720Z,83.00
2019-02-10T18:29:36.504Z,82.90
2019-02-10T18:32:15.034Z,83.00
2019-02-10T18:34:45.305Z,83.10
2019-02-10T18:37:27.800Z,83.40
2019-02-10T18:40:14.290Z,83.30
2019-02-10T18:42:47.816Z,83.50
2019-02-10T18:45:45.476Z,83.40
2019-02-10T18:48:21.952Z,83.10
2019-02-10T18:52:19.004Z,83.10
2019-02-10T18:54:32.777Z,83.10
2019-02-10T19:42:31.152Z,82.50
2019-02-10T19:45:09.169Z,82.40
2019-02-10T19:48:11.242Z,82.40
2019-02-10T19:54:56.424Z,82.20
2019-02-10T19:57:03.361Z,82.30
2019-02-10T20:05:53.335Z,82.10
2019-02-10T20:09:53.963Z,81.90
2019-02-10T20:15:07.255Z,81.90
2019-02-10T20:30:12.264Z,81.40
2019-02-10T20:38:52.452Z,81.50
2019-02-10T20:39:39.264Z,81.40
2019-02-10T20:41:30.477Z,81.80
2019-02-10T20:47:46.916Z,81.80
2019-02-10T20:53:50.040Z,82.00
2019-02-10T21:22:27.075Z,83.20
2019-02-10T21:32:32.039Z,83.70
2019-02-10T21:59:48.838Z,84.90
2019-02-10T22:05:38.970Z,86.30
2019-02-10T22:08:19.594Z,86.40
2019-02-10T22:11:34.735Z,86.40
2019-02-10T22:13:55.503Z,86.50
2019-02-10T22:16:38.670Z,86.50
2019-02-10T22:25:09.615Z,86.90
2019-02-10T22:28:45.156Z,86.50
2019-02-10T22:31:22.082Z,86.90
2019-02-10T22:34:17.034Z,87.10
2019-02-10T22:36:49.589Z,87.20
2019-02-10T22:39:18.613Z,87.40
2019-02-10T22:41:48.676Z,87.40
2019-02-10T22:44:20.163Z,87.50
2019-02-10T22:47:03.191Z,87.60
2019-02-10T22:49:37.341Z,87.70
2019-02-10T22:52:26.113Z,87.70
2019-02-10T22:55:04.692Z,87.90
2019-02-10T22:57:33.526Z,87.90
2019-02-10T23:00:04.179Z,87.90
2019-02-10T23:02:33.076Z,88.00
2019-02-10T23:05:01.934Z,88.10
2019-02-10T23:07:30.748Z,88.20
2019-02-10T23:09:59.865Z,88.40
2019-02-10T23:12:28.666Z,88.30
2019-02-10T23:14:57.383Z,88.40
2019-02-10T23:17:27.843Z,88.20
2019-02-10T23:19:56.760Z,88.30
2019-02-10T23:22:25.472Z,88.60
2019-02-10T23:24:54.240Z,88.60
2019-02-10T23:27:23.041Z,88.80
2019-02-10T23:29:54.551Z,88.80
2019-02-10T23:32:23.427Z,88.90
2019-02-10T23:34:52.178Z,88.80
2019-02-10T23:37:21.573Z,88.80
2019-02-10T23:39:50.452Z,88.40
2019-02-10T23:42:19.256Z,88.20
2019-02-10T23:44:48.227Z,88.10
2019-02-10T23:47:17.014Z,87.80
2019-02-10T23:49:45.921Z,87.80
2019-02-10T23:52:14.794Z,87.70
2019-02-10T23:54:43.609Z,87.60
2019-02-10T23:57:12.396Z,87.70
2019-02-10T23:59:41.286Z,87.40
